クアラルンプール の空港の天気 - METARとTAF

クアラルンプール国際空港 ( WMKK / KUL ) - マレーシア スランゴール州セパン
飛行場実況気象(Metar)
観測時間10/21 19:00 MYT (10/21 11:00 UTC)
風向・風速南南東 2m/s
視程6000m
天気現象弱い雷雨
少しの雲 雲底高度 300m
少しの雲 雲底高度 490m
全天の4割程度の雲 雲底高度 850m
気温28℃
湿度89%
気圧1007hPa
METARWMKK 211100Z 15003KT 110V190 6000 -TSRA FEW010 FEW016CB SCT028 28/26 Q1007 TEMPO 5000 TSRA
過去の天気等 Google飛行場航空写真 Wunderground天気予報

過去48時間のMETAR

飛行場予報(TAF)
発表時間: 10/21 17:18 MYT (10/21 09:18 UTC)
予報対象時間: 21日17時 MYT ~ 22日20時 MYT
風向・風速南南西 3m/s
視程10km以上
少しの積乱雲 雲底高度 520m
21日17時 MYT ~ 21日21時 MYT に一時的に
風向・風速南 5m/s 瞬間風速 12m/s
視程3000m
天気現象雷雨
少しの雲 雲底高度 300m
少しの積乱雲 雲底高度 490m
全天の4割程度の雲 雲底高度 550m
21日22時 MYT ~ 21日23時 MYT に徐々に
風向・風速不定 1m/s
視程8000m
少しの雲 雲底高度 300m
22日8時 MYT ~ 22日10時 MYT に徐々に
視程10km以上
少しの積乱雲 雲底高度 520m
TAF AMD WMKK 210918Z 2109/2212 20005KT 9999 FEW017CB
TEMPO 2109/2113 19010G23KT 3000 TSRA FEW010 FEW016CB SCT018
BECMG 2114/2115 VRB02KT 8000 FEW010
BECMG 2200/2202 9999 FEW017CB